sensor_id;sensor_type;location;lat;lon;timestamp;temperature;humidity
23633;DHT22;11993;48.748;9.166;2023-11-21T00:01:36;7.40;89.80
23633;DHT22;11993;48.748;9.166;2023-11-21T00:04:01;7.40;89.60
23633;DHT22;11993;48.748;9.166;2023-11-21T00:06:27;7.40;89.50
23633;DHT22;11993;48.748;9.166;2023-11-21T00:08:53;7.30;89.80
23633;DHT22;11993;48.748;9.166;2023-11-21T00:11:18;7.40;89.60
23633;DHT22;11993;48.748;9.166;2023-11-21T00:13:44;7.30;89.70
23633;DHT22;11993;48.748;9.166;2023-11-21T00:16:10;7.20;90.10
23633;DHT22;11993;48.748;9.166;2023-11-21T00:18:36;7.40;89.90
23633;DHT22;11993;48.748;9.166;2023-11-21T00:21:02;7.30;90.00
23633;DHT22;11993;48.748;9.166;2023-11-21T00:23:29;7.30;89.90
23633;DHT22;11993;48.748;9.166;2023-11-21T00:25:54;7.30;90.20
23633;DHT22;11993;48.748;9.166;2023-11-21T00:28:20;7.30;90.40
23633;DHT22;11993;48.748;9.166;2023-11-21T00:30:45;7.30;90.20
23633;DHT22;11993;48.748;9.166;2023-11-21T00:33:11;7.20;90.50
23633;DHT22;11993;48.748;9.166;2023-11-21T00:35:36;7.30;90.30
23633;DHT22;11993;48.748;9.166;2023-11-21T00:38:02;7.20;90.40
23633;DHT22;11993;48.748;9.166;2023-11-21T00:40:28;7.20;90.60
23633;DHT22;11993;48.748;9.166;2023-11-21T00:42:54;7.20;90.70
23633;DHT22;11993;48.748;9.166;2023-11-21T00:45:21;7.20;90.60
23633;DHT22;11993;48.748;9.166;2023-11-21T00:47:47;7.20;90.60
23633;DHT22;11993;48.748;9.166;2023-11-21T00:50:12;7.30;90.50
23633;DHT22;11993;48.748;9.166;2023-11-21T00:52:38;7.30;90.40
23633;DHT22;11993;48.748;9.166;2023-11-21T00:55:04;7.20;90.60
23633;DHT22;11993;48.748;9.166;2023-11-21T00:57:32;7.30;90.50
23633;DHT22;11993;48.748;9.166;2023-11-21T00:59:58;7.30;90.30
23633;DHT22;11993;48.748;9.166;2023-11-21T01:02:24;7.20;90.60
23633;DHT22;11993;48.748;9.166;2023-11-21T01:04:50;7.10;90.60
23633;DHT22;11993;48.748;9.166;2023-11-21T01:07:16;7.10;90.90
23633;DHT22;11993;48.748;9.166;2023-11-21T01:09:41;7.10;90.90
23633;DHT22;11993;48.748;9.166;2023-11-21T01:12:07;7.20;90.90
23633;DHT22;11993;48.748;9.166;2023-11-21T01:14:33;7.20;90.70
23633;DHT22;11993;48.748;9.166;2023-11-21T01:16:58;7.20;90.80
23633;DHT22;11993;48.748;9.166;2023-11-21T01:19:24;7.10;91.10
23633;DHT22;11993;48.748;9.166;2023-11-21T01:21:49;7.20;90.90
23633;DHT22;11993;48.748;9.166;2023-11-21T01:24:15;7.20;91.10
23633;DHT22;11993;48.748;9.166;2023-11-21T01:26:40;7.20;91.00
23633;DHT22;11993;48.748;9.166;2023-11-21T01:29:07;7.10;91.30
23633;DHT22;11993;48.748;9.166;2023-11-21T01:31:33;7.20;91.20
23633;DHT22;11993;48.748;9.166;2023-11-21T01:33:58;7.20;91.10
23633;DHT22;11993;48.748;9.166;2023-11-21T01:36:32;7.20;91.20
23633;DHT22;11993;48.748;9.166;2023-11-21T01:38:58;7.30;91.00
23633;DHT22;11993;48.748;9.166;2023-11-21T01:41:30;7.20;91.30
23633;DHT22;11993;48.748;9.166;2023-11-21T01:43:56;7.10;91.20
23633;DHT22;11993;48.748;9.166;2023-11-21T01:46:22;7.20;91.10
23633;DHT22;11993;48.748;9.166;2023-11-21T01:48:48;7.20;91.20
23633;DHT22;11993;48.748;9.166;2023-11-21T01:51:15;7.20;91.20
23633;DHT22;11993;48.748;9.166;2023-11-21T01:53:40;7.30;91.10
23633;DHT22;11993;48.748;9.166;2023-11-21T01:56:07;7.30;90.80
23633;DHT22;11993;48.748;9.166;2023-11-21T01:58:33;7.30;90.90
23633;DHT22;11993;48.748;9.166;2023-11-21T02:00:59;7.30;90.70
23633;DHT22;11993;48.748;9.166;2023-11-21T02:03:25;7.30;90.70
23633;DHT22;11993;48.748;9.166;2023-11-21T02:05:52;7.30;90.70
23633;DHT22;11993;48.748;9.166;2023-11-21T02:08:19;7.40;90.70
23633;DHT22;11993;48.748;9.166;2023-11-21T02:10:47;7.30;90.60
23633;DHT22;11993;48.748;9.166;2023-11-21T02:13:13;7.20;90.50
23633;DHT22;11993;48.748;9.166;2023-11-21T02:15:46;7.30;90.90
23633;DHT22;11993;48.748;9.166;2023-11-21T02:18:15;7.30;90.80
23633;DHT22;11993;48.748;9.166;2023-11-21T02:20:41;7.50;90.30
23633;DHT22;11993;48.748;9.166;2023-11-21T02:23:08;7.40;90.40
23633;DHT22;11993;48.748;9.166;2023-11-21T02:25:33;7.30;90.70
23633;DHT22;11993;48.748;9.166;2023-11-21T02:28:00;7.30;90.50
23633;DHT22;11993;48.748;9.166;2023-11-21T02:30:26;7.30;90.70
23633;DHT22;11993;48.748;9.166;2023-11-21T02:33:01;7.30;90.60
23633;DHT22;11993;48.748;9.166;2023-11-21T02:35:27;7.20;90.50
23633;DHT22;11993;48.748;9.166;2023-11-21T02:37:53;7.30;90.20
23633;DHT22;11993;48.748;9.166;2023-11-21T02:40:19;7.20;90.20
23633;DHT22;11993;48.748;9.166;2023-11-21T02:42:49;7.40;90.00
23633;DHT22;11993;48.748;9.166;2023-11-21T02:45:22;7.20;90.00
23633;DHT22;11993;48.748;9.166;2023-11-21T02:47:47;7.20;90.10
23633;DHT22;11993;48.748;9.166;2023-11-21T02:50:14;7.30;90.00
23633;DHT22;11993;48.748;9.166;2023-11-21T02:52:40;7.30;89.70
23633;DHT22;11993;48.748;9.166;2023-11-21T02:55:06;7.30;89.60
23633;DHT22;11993;48.748;9.166;2023-11-21T02:57:32;7.20;89.80
23633;DHT22;11993;48.748;9.166;2023-11-21T02:59:59;7.20;89.90
23633;DHT22;11993;48.748;9.166;2023-11-21T03:02:25;7.20;90.00
23633;DHT22;11993;48.748;9.166;2023-11-21T03:04:50;7.20;89.90
23633;DHT22;11993;48.748;9.166;2023-11-21T03:07:16;7.10;90.00
23633;DHT22;11993;48.748;9.166;2023-11-21T03:09:44;7.20;89.80
23633;DHT22;11993;48.748;9.166;2023-11-21T03:12:10;7.10;90.00
23633;DHT22;11993;48.748;9.166;2023-11-21T03:14:38;7.10;90.10
23633;DHT22;11993;48.748;9.166;2023-11-21T03:17:03;7.10;90.10
23633;DHT22;11993;48.748;9.166;2023-11-21T03:19:30;7.10;90.10
23633;DHT22;11993;48.748;9.166;2023-11-21T03:21:56;7.10;90.20
23633;DHT22;11993;48.748;9.166;2023-11-21T03:24:21;7.00;90.10
23633;DHT22;11993;48.748;9.166;2023-11-21T03:26:48;7.10;90.00
23633;DHT22;11993;48.748;9.166;2023-11-21T03:29:14;7.10;89.80
23633;DHT22;11993;48.748;9.166;2023-11-21T03:31:40;7.10;90.10
23633;DHT22;11993;48.748;9.166;2023-11-21T03:34:06;7.00;90.10
23633;DHT22;11993;48.748;9.166;2023-11-21T03:36:32;7.00;90.30
23633;DHT22;11993;48.748;9.166;2023-11-21T03:38:57;7.00;90.40
23633;DHT22;11993;48.748;9.166;2023-11-21T03:41:23;7.00;90.30
23633;DHT22;11993;48.748;9.166;2023-11-21T03:43:48;7.10;90.10
23633;DHT22;11993;48.748;9.166;2023-11-21T03:46:14;7.10;90.10
23633;DHT22;11993;48.748;9.166;2023-11-21T03:48:40;7.10;89.90
23633;DHT22;11993;48.748;9.166;2023-11-21T03:51:05;7.20;89.50
23633;DHT22;11993;48.748;9.166;2023-11-21T03:53:31;7.10;89.90
23633;DHT22;11993;48.748;9.166;2023-11-21T03:55:57;7.10;89.80
23633;DHT22;11993;48.748;9.166;2023-11-21T03:58:23;7.20;89.60
23633;DHT22;11993;48.748;9.166;2023-11-21T04:00:48;7.20;89.50
23633;DHT22;11993;48.748;9.166;2023-11-21T04:03:14;7.30;89.50
23633;DHT22;11993;48.748;9.166;2023-11-21T04:05:40;7.20;89.60
23633;DHT22;11993;48.748;9.166;2023-11-21T04:08:06;7.10;89.70
23633;DHT22;11993;48.748;9.166;2023-11-21T04:10:32;7.20;89.80
23633;DHT22;11993;48.748;9.166;2023-11-21T04:12:58;7.10;90.00
23633;DHT22;11993;48.748;9.166;2023-11-21T04:15:24;7.00;90.50
23633;DHT22;11993;48.748;9.166;2023-11-21T04:17:49;7.10;90.60
23633;DHT22;11993;48.748;9.166;2023-11-21T04:20:15;7.10;90.30
23633;DHT22;11993;48.748;9.166;2023-11-21T04:22:41;7.10;90.30
23633;DHT22;11993;48.748;9.166;2023-11-21T04:25:13;7.10;90.10
23633;DHT22;11993;48.748;9.166;2023-11-21T04:27:40;7.20;89.90
23633;DHT22;11993;48.748;9.166;2023-11-21T04:30:06;7.10;89.80
23633;DHT22;11993;48.748;9.166;2023-11-21T04:32:32;7.20;89.70
23633;DHT22;11993;48.748;9.166;2023-11-21T04:34:58;7.10;89.80
23633;DHT22;11993;48.748;9.166;2023-11-21T04:37:23;7.00;90.20
23633;DHT22;11993;48.748;9.166;2023-11-21T04:39:49;7.10;90.00
23633;DHT22;11993;48.748;9.166;2023-11-21T04:42:15;7.10;89.90
23633;DHT22;11993;48.748;9.166;2023-11-21T04:44:40;7.10;90.10
23633;DHT22;11993;48.748;9.166;2023-11-21T04:47:06;7.20;89.90
23633;DHT22;11993;48.748;9.166;2023-11-21T04:49:33;7.10;89.80
23633;DHT22;11993;48.748;9.166;2023-11-21T04:51:59;7.00;90.20
23633;DHT22;11993;48.748;9.166;2023-11-21T04:54:24;7.00;90.30
23633;DHT22;11993;48.748;9.166;2023-11-21T04:56:50;7.00;90.00
23633;DHT22;11993;48.748;9.166;2023-11-21T04:59:15;7.10;90.00
23633;DHT22;11993;48.748;9.166;2023-11-21T05:01:41;7.00;90.50
23633;DHT22;11993;48.748;9.166;2023-11-21T05:04:06;7.10;90.30
23633;DHT22;11993;48.748;9.166;2023-11-21T05:06:34;7.10;90.20
23633;DHT22;11993;48.748;9.166;2023-11-21T05:08:59;7.10;90.20
23633;DHT22;11993;48.748;9.166;2023-11-21T05:11:28;7.10;90.10
23633;DHT22;11993;48.748;9.166;2023-11-21T05:13:57;7.10;90.30
23633;DHT22;11993;48.748;9.166;2023-11-21T05:16:25;7.10;90.20
23633;DHT22;11993;48.748;9.166;2023-11-21T05:18:52;7.00;90.30
23633;DHT22;11993;48.748;9.166;2023-11-21T05:21:18;7.10;90.20
23633;DHT22;11993;48.748;9.166;2023-11-21T05:23:46;7.10;90.30
23633;DHT22;11993;48.748;9.166;2023-11-21T05:26:11;6.90;90.80
23633;DHT22;11993;48.748;9.166;2023-11-21T05:28:37;7.00;90.50
23633;DHT22;11993;48.748;9.166;2023-11-21T05:31:03;7.00;90.50
23633;DHT22;11993;48.748;9.166;2023-11-21T05:33:28;6.90;90.90
23633;DHT22;11993;48.748;9.166;2023-11-21T05:35:54;6.90;90.90
23633;DHT22;11993;48.748;9.166;2023-11-21T05:38:19;6.80;90.90
23633;DHT22;11993;48.748;9.166;2023-11-21T05:40:47;6.90;90.90
23633;DHT22;11993;48.748;9.166;2023-11-21T05:43:13;6.90;91.00
23633;DHT22;11993;48.748;9.166;2023-11-21T05:45:38;6.80;90.90
23633;DHT22;11993;48.748;9.166;2023-11-21T05:48:04;6.80;90.90
23633;DHT22;11993;48.748;9.166;2023-11-21T05:50:30;6.80;91.00
23633;DHT22;11993;48.748;9.166;2023-11-21T05:52:56;6.80;91.10
23633;DHT22;11993;48.748;9.166;2023-11-21T05:55:23;6.80;91.20
23633;DHT22;11993;48.748;9.166;2023-11-21T05:57:51;6.90;90.90
23633;DHT22;11993;48.748;9.166;2023-11-21T06:00:17;6.90;90.70
23633;DHT22;11993;48.748;9.166;2023-11-21T06:02:51;6.90;90.80
23633;DHT22;11993;48.748;9.166;2023-11-21T06:05:19;6.80;90.90
23633;DHT22;11993;48.748;9.166;2023-11-21T06:07:45;6.90;90.90
23633;DHT22;11993;48.748;9.166;2023-11-21T06:10:11;6.80;91.10
23633;DHT22;11993;48.748;9.166;2023-11-21T06:12:39;6.80;91.10
23633;DHT22;11993;48.748;9.166;2023-11-21T06:15:06;6.80;91.20
23633;DHT22;11993;48.748;9.166;2023-11-21T06:17:35;6.80;91.20
23633;DHT22;11993;48.748;9.166;2023-11-21T06:20:08;6.70;91.40
23633;DHT22;11993;48.748;9.166;2023-11-21T06:22:38;6.90;91.20
23633;DHT22;11993;48.748;9.166;2023-11-21T06:25:05;6.90;91.00
23633;DHT22;11993;48.748;9.166;2023-11-21T06:27:37;6.90;91.20
23633;DHT22;11993;48.748;9.166;2023-11-21T06:30:04;6.90;91.00
23633;DHT22;11993;48.748;9.166;2023-11-21T06:32:30;6.90;91.00
23633;DHT22;11993;48.748;9.166;2023-11-21T06:34:56;7.00;91.00
23633;DHT22;11993;48.748;9.166;2023-11-21T06:37:25;7.00;91.00
23633;DHT22;11993;48.748;9.166;2023-11-21T06:39:50;6.90;91.00
23633;DHT22;11993;48.748;9.166;2023-11-21T06:42:18;7.00;91.00
23633;DHT22;11993;48.748;9.166;2023-11-21T06:44:45;7.00;91.20
23633;DHT22;11993;48.748;9.166;2023-11-21T06:47:11;7.00;90.80
23633;DHT22;11993;48.748;9.166;2023-11-21T06:49:36;7.10;90.80
23633;DHT22;11993;48.748;9.166;2023-11-21T06:52:04;7.10;90.80
23633;DHT22;11993;48.748;9.166;2023-11-21T06:54:31;7.10;90.70
23633;DHT22;11993;48.748;9.166;2023-11-21T06:56:56;7.20;90.70
23633;DHT22;11993;48.748;9.166;2023-11-21T06:59:22;7.30;90.40
23633;DHT22;11993;48.748;9.166;2023-11-21T07:01:47;7.20;90.30
23633;DHT22;11993;48.748;9.166;2023-11-21T07:04:13;7.10;90.50
23633;DHT22;11993;48.748;9.166;2023-11-21T07:06:40;7.20;90.60
23633;DHT22;11993;48.748;9.166;2023-11-21T07:09:06;7.30;90.60
23633;DHT22;11993;48.748;9.166;2023-11-21T07:11:34;7.30;90.40
23633;DHT22;11993;48.748;9.166;2023-11-21T07:14:00;7.40;90.30
23633;DHT22;11993;48.748;9.166;2023-11-21T07:16:30;7.30;90.00
23633;DHT22;11993;48.748;9.166;2023-11-21T07:18:56;7.40;89.90
23633;DHT22;11993;48.748;9.166;2023-11-21T07:21:22;7.30;89.80
23633;DHT22;11993;48.748;9.166;2023-11-21T07:23:48;7.30;90.00
23633;DHT22;11993;48.748;9.166;2023-11-21T07:26:13;7.30;89.80
23633;DHT22;11993;48.748;9.166;2023-11-21T07:28:39;7.40;89.80
23633;DHT22;11993;48.748;9.166;2023-11-21T07:31:05;7.30;90.00
23633;DHT22;11993;48.748;9.166;2023-11-21T07:33:30;7.40;90.00
23633;DHT22;11993;48.748;9.166;2023-11-21T07:35:56;7.40;90.00
23633;DHT22;11993;48.748;9.166;2023-11-21T07:38:21;7.30;90.00
23633;DHT22;11993;48.748;9.166;2023-11-21T07:40:47;7.40;90.00
23633;DHT22;11993;48.748;9.166;2023-11-21T07:43:12;7.30;90.20
23633;DHT22;11993;48.748;9.166;2023-11-21T07:45:38;7.30;90.10
23633;DHT22;11993;48.748;9.166;2023-11-21T07:48:04;7.30;90.30
23633;DHT22;11993;48.748;9.166;2023-11-21T07:50:30;7.30;90.30
23633;DHT22;11993;48.748;9.166;2023-11-21T07:52:59;7.40;90.60
23633;DHT22;11993;48.748;9.166;2023-11-21T07:55:24;7.40;90.40
23633;DHT22;11993;48.748;9.166;2023-11-21T07:57:50;7.40;90.60
23633;DHT22;11993;48.748;9.166;2023-11-21T08:00:16;7.30;90.80
23633;DHT22;11993;48.748;9.166;2023-11-21T08:02:42;7.40;90.80
23633;DHT22;11993;48.748;9.166;2023-11-21T08:05:11;7.40;90.60
23633;DHT22;11993;48.748;9.166;2023-11-21T08:07:37;7.40;90.80
23633;DHT22;11993;48.748;9.166;2023-11-21T08:10:03;7.40;90.80
23633;DHT22;11993;48.748;9.166;2023-11-21T08:12:30;7.50;90.90
23633;DHT22;11993;48.748;9.166;2023-11-21T08:14:56;7.60;90.70
23633;DHT22;11993;48.748;9.166;2023-11-21T08:17:21;7.60;90.60
23633;DHT22;11993;48.748;9.166;2023-11-21T08:19:48;7.60;90.80
23633;DHT22;11993;48.748;9.166;2023-11-21T08:22:17;7.60;90.70
23633;DHT22;11993;48.748;9.166;2023-11-21T08:24:44;7.60;90.50
23633;DHT22;11993;48.748;9.166;2023-11-21T08:27:09;7.60;90.20
23633;DHT22;11993;48.748;9.166;2023-11-21T08:29:35;7.40;90.20
23633;DHT22;11993;48.748;9.166;2023-11-21T08:32:02;7.40;90.30
23633;DHT22;11993;48.748;9.166;2023-11-21T08:34:28;7.40;90.40
23633;DHT22;11993;48.748;9.166;2023-11-21T08:36:54;7.50;90.40
23633;DHT22;11993;48.748;9.166;2023-11-21T08:39:21;7.60;90.20
23633;DHT22;11993;48.748;9.166;2023-11-21T08:41:49;7.60;90.10
23633;DHT22;11993;48.748;9.166;2023-11-21T08:44:16;7.70;89.90
23633;DHT22;11993;48.748;9.166;2023-11-21T08:46:45;7.80;89.80
23633;DHT22;11993;48.748;9.166;2023-11-21T08:49:12;7.80;89.80
23633;DHT22;11993;48.748;9.166;2023-11-21T08:51:38;7.80;89.70
23633;DHT22;11993;48.748;9.166;2023-11-21T08:54:04;7.90;89.50
23633;DHT22;11993;48.748;9.166;2023-11-21T08:56:36;7.90;89.60
23633;DHT22;11993;48.748;9.166;2023-11-21T08:59:02;8.00;89.40
23633;DHT22;11993;48.748;9.166;2023-11-21T09:01:31;8.00;89.30
23633;DHT22;11993;48.748;9.166;2023-11-21T09:03:58;8.20;88.80
23633;DHT22;11993;48.748;9.166;2023-11-21T09:06:24;8.40;88.20
23633;DHT22;11993;48.748;9.166;2023-11-21T09:08:49;8.40;87.90
23633;DHT22;11993;48.748;9.166;2023-11-21T09:11:15;8.60;87.80
23633;DHT22;11993;48.748;9.166;2023-11-21T09:13:41;8.80;87.40
23633;DHT22;11993;48.748;9.166;2023-11-21T09:16:06;9.00;87.20
23633;DHT22;11993;48.748;9.166;2023-11-21T09:18:32;9.10;87.50
23633;DHT22;11993;48.748;9.166;2023-11-21T09:20:58;9.40;87.00
23633;DHT22;11993;48.748;9.166;2023-11-21T09:23:24;9.50;85.10
23633;DHT22;11993;48.748;9.166;2023-11-21T09:25:50;9.70;84.80
23633;DHT22;11993;48.748;9.166;2023-11-21T09:28:17;9.80;84.10
23633;DHT22;11993;48.748;9.166;2023-11-21T09:30:43;9.90;83.50
23633;DHT22;11993;48.748;9.166;2023-11-21T09:33:09;9.90;84.10
23633;DHT22;11993;48.748;9.166;2023-11-21T09:35:56;9.80;83.00
23633;DHT22;11993;48.748;9.166;2023-11-21T09:38:22;9.80;84.10
23633;DHT22;11993;48.748;9.166;2023-11-21T09:40:48;9.90;83.60
23633;DHT22;11993;48.748;9.166;2023-11-21T09:43:16;9.60;84.00
23633;DHT22;11993;48.748;9.166;2023-11-21T09:45:46;9.40;84.50
23633;DHT22;11993;48.748;9.166;2023-11-21T09:48:13;9.30;85.10
23633;DHT22;11993;48.748;9.166;2023-11-21T09:50:43;9.40;84.30
23633;DHT22;11993;48.748;9.166;2023-11-21T09:53:22;9.40;84.00
23633;DHT22;11993;48.748;9.166;2023-11-21T09:55:51;9.30;83.60
23633;DHT22;11993;48.748;9.166;2023-11-21T09:58:18;9.50;83.90
23633;DHT22;11993;48.748;9.166;2023-11-21T10:00:48;9.40;84.40
23633;DHT22;11993;48.748;9.166;2023-11-21T10:03:14;9.20;83.90
23633;DHT22;11993;48.748;9.166;2023-11-21T10:05:42;9.30;84.20
23633;DHT22;11993;48.748;9.166;2023-11-21T10:08:09;9.20;84.40
23633;DHT22;11993;48.748;9.166;2023-11-21T10:10:43;9.20;84.80
23633;DHT22;11993;48.748;9.166;2023-11-21T10:13:12;9.30;84.60
23633;DHT22;11993;48.748;9.166;2023-11-21T10:15:42;9.20;85.10
23633;DHT22;11993;48.748;9.166;2023-11-21T10:18:14;9.30;85.10
23633;DHT22;11993;48.748;9.166;2023-11-21T10:20:40;9.40;85.70
23633;DHT22;11993;48.748;9.166;2023-11-21T10:23:07;9.50;85.70
23633;DHT22;11993;48.748;9.166;2023-11-21T10:25:36;9.60;85.70
23633;DHT22;11993;48.748;9.166;2023-11-21T10:28:03;9.50;86.30
23633;DHT22;11993;48.748;9.166;2023-11-21T10:30:34;9.40;85.50
23633;DHT22;11993;48.748;9.166;2023-11-21T10:33:02;9.40;85.80
23633;DHT22;11993;48.748;9.166;2023-11-21T10:35:43;9.40;85.90
23633;DHT22;11993;48.748;9.166;2023-11-21T10:38:12;9.30;86.30
23633;DHT22;11993;48.748;9.166;2023-11-21T10:40:42;9.40;86.40
23633;DHT22;11993;48.748;9.166;2023-11-21T10:43:10;9.40;86.30
23633;DHT22;11993;48.748;9.166;2023-11-21T10:45:39;9.30;86.70
23633;DHT22;11993;48.748;9.166;2023-11-21T10:48:09;9.30;86.50
23633;DHT22;11993;48.748;9.166;2023-11-21T10:50:36;9.20;86.60
23633;DHT22;11993;48.748;9.166;2023-11-21T10:53:03;9.10;86.70
23633;DHT22;11993;48.748;9.166;2023-11-21T10:55:29;9.20;86.60
23633;DHT22;11993;48.748;9.166;2023-11-21T10:58:02;9.00;87.40
23633;DHT22;11993;48.748;9.166;2023-11-21T11:00:39;9.20;87.20
23633;DHT22;11993;48.748;9.166;2023-11-21T11:03:06;9.20;87.30
23633;DHT22;11993;48.748;9.166;2023-11-21T11:05:38;9.10;88.10
23633;DHT22;11993;48.748;9.166;2023-11-21T11:08:06;9.20;87.50
23633;DHT22;11993;48.748;9.166;2023-11-21T11:10:33;9.40;87.20
23633;DHT22;11993;48.748;9.166;2023-11-21T11:12:59;9.50;87.00
23633;DHT22;11993;48.748;9.166;2023-11-21T11:15:27;9.50;86.70
23633;DHT22;11993;48.748;9.166;2023-11-21T11:17:53;9.70;86.60
23633;DHT22;11993;48.748;9.166;2023-11-21T11:20:32;9.60;87.00
23633;DHT22;11993;48.748;9.166;2023-11-21T11:29:14;9.70;86.20
23633;DHT22;11993;48.748;9.166;2023-11-21T11:34:36;9.80;86.10
23633;DHT22;11993;48.748;9.166;2023-11-21T11:37:06;9.70;85.70
23633;DHT22;11993;48.748;9.166;2023-11-21T11:39:35;9.80;85.90
23633;DHT22;11993;48.748;9.166;2023-11-21T11:42:07;9.70;86.10
23633;DHT22;11993;48.748;9.166;2023-11-21T11:44:46;9.60;86.30
23633;DHT22;11993;48.748;9.166;2023-11-21T11:47:16;9.50;86.50
23633;DHT22;11993;48.748;9.166;2023-11-21T11:52:49;9.40;87.50
23633;DHT22;11993;48.748;9.166;2023-11-21T11:55:20;9.40;87.50
23633;DHT22;11993;48.748;9.166;2023-11-21T11:57:51;9.40;87.50
23633;DHT22;11993;48.748;9.166;2023-11-21T12:00:18;9.60;86.80
23633;DHT22;11993;48.748;9.166;2023-11-21T12:03:00;9.50;86.80
23633;DHT22;11993;48.748;9.166;2023-11-21T12:05:30;9.60;86.50
23633;DHT22;11993;48.748;9.166;2023-11-21T12:08:01;9.70;86.60
23633;DHT22;11993;48.748;9.166;2023-11-21T12:10:35;9.70;86.30
23633;DHT22;11993;48.748;9.166;2023-11-21T12:15:28;10.10;85.60
23633;DHT22;11993;48.748;9.166;2023-11-21T12:17:57;9.90;85.90
23633;DHT22;11993;48.748;9.166;2023-11-21T12:20:25;10.10;85.90
23633;DHT22;11993;48.748;9.166;2023-11-21T12:22:56;10.20;85.40
23633;DHT22;11993;48.748;9.166;2023-11-21T12:25:29;10.10;84.80
23633;DHT22;11993;48.748;9.166;2023-11-21T12:27:57;9.90;85.30
23633;DHT22;11993;48.748;9.166;2023-11-21T12:30:25;9.90;85.50
23633;DHT22;11993;48.748;9.166;2023-11-21T12:32:54;10.00;85.40
23633;DHT22;11993;48.748;9.166;2023-11-21T12:35:27;9.90;85.60
23633;DHT22;11993;48.748;9.166;2023-11-21T12:37:55;10.10;85.40
23633;DHT22;11993;48.748;9.166;2023-11-21T12:40:23;10.10;84.70
23633;DHT22;11993;48.748;9.166;2023-11-21T12:42:58;10.10;84.50
23633;DHT22;11993;48.748;9.166;2023-11-21T12:45:28;10.10;84.00
23633;DHT22;11993;48.748;9.166;2023-11-21T12:48:00;10.00;84.30
23633;DHT22;11993;48.748;9.166;2023-11-21T12:50:27;10.00;84.20
23633;DHT22;11993;48.748;9.166;2023-11-21T12:55:33;9.80;84.50
23633;DHT22;11993;48.748;9.166;2023-11-21T12:58:01;9.70;85.00
23633;DHT22;11993;48.748;9.166;2023-11-21T13:00:42;9.60;85.60
23633;DHT22;11993;48.748;9.166;2023-11-21T13:03:09;9.60;85.90
23633;DHT22;11993;48.748;9.166;2023-11-21T13:05:38;9.40;86.40
23633;DHT22;11993;48.748;9.166;2023-11-21T13:08:06;9.40;86.60
23633;DHT22;11993;48.748;9.166;2023-11-21T13:10:39;9.50;86.20
23633;DHT22;11993;48.748;9.166;2023-11-21T13:13:07;9.50;85.90
23633;DHT22;11993;48.748;9.166;2023-11-21T13:15:51;9.60;85.80
23633;DHT22;11993;48.748;9.166;2023-11-21T13:18:17;9.90;85.30
23633;DHT22;11993;48.748;9.166;2023-11-21T13:20:43;10.40;84.40
23633;DHT22;11993;48.748;9.166;2023-11-21T13:23:09;11.10;82.20
23633;DHT22;11993;48.748;9.166;2023-11-21T13:25:40;11.10;80.20
23633;DHT22;11993;48.748;9.166;2023-11-21T13:28:07;10.90;80.30
23633;DHT22;11993;48.748;9.166;2023-11-21T13:30:33;10.70;81.40
23633;DHT22;11993;48.748;9.166;2023-11-21T13:33:03;10.40;81.50
23633;DHT22;11993;48.748;9.166;2023-11-21T13:35:34;10.00;82.10
23633;DHT22;11993;48.748;9.166;2023-11-21T13:38:09;9.60;82.50
23633;DHT22;11993;48.748;9.166;2023-11-21T13:40:36;9.50;83.20
23633;DHT22;11993;48.748;9.166;2023-11-21T13:43:08;9.50;83.60
23633;DHT22;11993;48.748;9.166;2023-11-21T13:45:42;9.10;85.00
23633;DHT22;11993;48.748;9.166;2023-11-21T13:48:09;9.10;86.10
23633;DHT22;11993;48.748;9.166;2023-11-21T13:51:01;9.10;86.40
23633;DHT22;11993;48.748;9.166;2023-11-21T13:53:36;8.80;86.90
23633;DHT22;11993;48.748;9.166;2023-11-21T13:56:03;8.70;87.80
23633;DHT22;11993;48.748;9.166;2023-11-21T13:58:29;8.70;88.10
23633;DHT22;11993;48.748;9.166;2023-11-21T14:01:10;8.60;88.30
23633;DHT22;11993;48.748;9.166;2023-11-21T14:03:58;8.50;89.10
23633;DHT22;11993;48.748;9.166;2023-11-21T14:06:43;8.60;89.20
23633;DHT22;11993;48.748;9.166;2023-11-21T14:09:16;8.60;89.00
23633;DHT22;11993;48.748;9.166;2023-11-21T14:11:55;8.60;89.30
23633;DHT22;11993;48.748;9.166;2023-11-21T14:14:24;8.50;89.90
23633;DHT22;11993;48.748;9.166;2023-11-21T14:16:53;8.50;89.90
23633;DHT22;11993;48.748;9.166;2023-11-21T14:19:21;8.50;90.70
23633;DHT22;11993;48.748;9.166;2023-11-21T14:21:47;8.40;90.60
23633;DHT22;11993;48.748;9.166;2023-11-21T14:24:16;8.50;90.60
23633;DHT22;11993;48.748;9.166;2023-11-21T14:26:46;8.40;90.70
23633;DHT22;11993;48.748;9.166;2023-11-21T14:29:12;8.40;90.80
23633;DHT22;11993;48.748;9.166;2023-11-21T14:31:40;8.50;90.50
23633;DHT22;11993;48.748;9.166;2023-11-21T14:34:07;8.40;90.90
23633;DHT22;11993;48.748;9.166;2023-11-21T14:36:34;8.40;90.90
23633;DHT22;11993;48.748;9.166;2023-11-21T14:38:59;8.40;90.80
23633;DHT22;11993;48.748;9.166;2023-11-21T14:41:25;8.50;90.50
23633;DHT22;11993;48.748;9.166;2023-11-21T14:43:53;8.40;90.80
23633;DHT22;11993;48.748;9.166;2023-11-21T14:46:19;8.50;90.80
23633;DHT22;11993;48.748;9.166;2023-11-21T14:48:45;8.50;90.80
23633;DHT22;11993;48.748;9.166;2023-11-21T14:51:23;8.40;91.10
23633;DHT22;11993;48.748;9.166;2023-11-21T14:53:58;8.40;91.00
23633;DHT22;11993;48.748;9.166;2023-11-21T14:56:32;8.30;91.10
23633;DHT22;11993;48.748;9.166;2023-11-21T14:59:00;8.40;90.80
23633;DHT22;11993;48.748;9.166;2023-11-21T15:01:34;8.30;91.10
23633;DHT22;11993;48.748;9.166;2023-11-21T15:04:20;8.30;91.20
23633;DHT22;11993;48.748;9.166;2023-11-21T15:06:59;8.30;91.00
23633;DHT22;11993;48.748;9.166;2023-11-21T15:09:25;8.30;91.10
23633;DHT22;11993;48.748;9.166;2023-11-21T15:12:10;8.30;91.20
23633;DHT22;11993;48.748;9.166;2023-11-21T15:14:49;8.40;91.30
23633;DHT22;11993;48.748;9.166;2023-11-21T15:17:18;8.30;91.10
23633;DHT22;11993;48.748;9.166;2023-11-21T15:19:54;8.40;91.20
23633;DHT22;11993;48.748;9.166;2023-11-21T15:22:20;8.30;91.00
23633;DHT22;11993;48.748;9.166;2023-11-21T15:24:46;8.40;91.00
23633;DHT22;11993;48.748;9.166;2023-11-21T15:27:16;8.40;91.10
23633;DHT22;11993;48.748;9.166;2023-11-21T15:29:49;8.40;90.90
23633;DHT22;11993;48.748;9.166;2023-11-21T15:32:15;8.30;90.90
23633;DHT22;11993;48.748;9.166;2023-11-21T15:34:41;8.40;90.90
23633;DHT22;11993;48.748;9.166;2023-11-21T15:37:08;8.20;90.90
23633;DHT22;11993;48.748;9.166;2023-11-21T15:39:37;8.30;90.80
23633;DHT22;11993;48.748;9.166;2023-11-21T15:42:03;8.30;90.60
23633;DHT22;11993;48.748;9.166;2023-11-21T15:44:30;8.20;91.00
23633;DHT22;11993;48.748;9.166;2023-11-21T15:46:59;8.10;91.40
23633;DHT22;11993;48.748;9.166;2023-11-21T15:49:25;8.10;91.30
23633;DHT22;11993;48.748;9.166;2023-11-21T15:51:52;8.20;91.30
23633;DHT22;11993;48.748;9.166;2023-11-21T15:54:19;8.10;91.30
23633;DHT22;11993;48.748;9.166;2023-11-21T15:56:46;8.00;91.70
23633;DHT22;11993;48.748;9.166;2023-11-21T15:59:12;8.10;91.40
23633;DHT22;11993;48.748;9.166;2023-11-21T16:01:39;8.20;91.20
23633;DHT22;11993;48.748;9.166;2023-11-21T16:04:10;8.10;91.10
23633;DHT22;11993;48.748;9.166;2023-11-21T16:06:37;8.10;91.10